sensor_id;sensor_type;location;lat;lon;timestamp;temperature;humidity
31575;DHT22;18182;1.328;103.810;2022-10-22T00:00:16;28.70;99.90
31575;DHT22;18182;1.328;103.810;2022-10-22T00:02:42;28.70;99.90
31575;DHT22;18182;1.328;103.810;2022-10-22T00:05:08;28.70;99.90
31575;DHT22;18182;1.328;103.810;2022-10-22T00:07:35;28.80;99.90
31575;DHT22;18182;1.328;103.810;2022-10-22T00:10:01;28.90;99.90
31575;DHT22;18182;1.328;103.810;2022-10-22T00:12:28;28.90;99.90
31575;DHT22;18182;1.328;103.810;2022-10-22T00:14:54;29.10;99.90
31575;DHT22;18182;1.328;103.810;2022-10-22T00:17:20;29.20;99.90
31575;DHT22;18182;1.328;103.810;2022-10-22T00:19:46;29.30;99.90
31575;DHT22;18182;1.328;103.810;2022-10-22T00:22:12;29.30;99.90
31575;DHT22;18182;1.328;103.810;2022-10-22T00:24:39;29.40;99.90
31575;DHT22;18182;1.328;103.810;2022-10-22T00:27:06;29.40;99.90
31575;DHT22;18182;1.328;103.810;2022-10-22T00:29:32;29.50;99.90
31575;DHT22;18182;1.328;103.810;2022-10-22T00:31:59;29.60;99.90
31575;DHT22;18182;1.328;103.810;2022-10-22T00:34:25;29.70;99.90
31575;DHT22;18182;1.328;103.810;2022-10-22T00:36:51;29.70;99.90
31575;DHT22;18182;1.328;103.810;2022-10-22T00:39:19;29.70;99.90
31575;DHT22;18182;1.328;103.810;2022-10-22T00:41:46;29.80;99.90
31575;DHT22;18182;1.328;103.810;2022-10-22T00:46:57;29.80;99.90
31575;DHT22;18182;1.328;103.810;2022-10-22T00:49:24;29.80;99.90
31575;DHT22;18182;1.328;103.810;2022-10-22T00:51:50;29.80;99.90
31575;DHT22;18182;1.328;103.810;2022-10-22T00:54:16;29.90;99.90
31575;DHT22;18182;1.328;103.810;2022-10-22T00:56:42;30.00;99.90
31575;DHT22;18182;1.328;103.810;2022-10-22T00:59:09;30.00;99.90
31575;DHT22;18182;1.328;103.810;2022-10-22T01:01:38;30.00;99.90
31575;DHT22;18182;1.328;103.810;2022-10-22T01:04:04;29.90;99.90
31575;DHT22;18182;1.328;103.810;2022-10-22T01:06:30;30.00;99.90
31575;DHT22;18182;1.328;103.810;2022-10-22T01:09:06;30.00;99.90
31575;DHT22;18182;1.328;103.810;2022-10-22T01:14:24;30.10;99.90
31575;DHT22;18182;1.328;103.810;2022-10-22T01:16:57;30.20;99.90
31575;DHT22;18182;1.328;103.810;2022-10-22T01:22:11;30.20;99.90
31575;DHT22;18182;1.328;103.810;2022-10-22T01:27:19;30.30;99.90
31575;DHT22;18182;1.328;103.810;2022-10-22T01:29:49;30.40;99.90
31575;DHT22;18182;1.328;103.810;2022-10-22T01:32:17;30.30;99.90
31575;DHT22;18182;1.328;103.810;2022-10-22T01:34:46;30.40;99.90
31575;DHT22;18182;1.328;103.810;2022-10-22T01:37:14;30.30;99.90
31575;DHT22;18182;1.328;103.810;2022-10-22T01:39:41;30.30;99.90
31575;DHT22;18182;1.328;103.810;2022-10-22T01:42:10;30.40;99.90
31575;DHT22;18182;1.328;103.810;2022-10-22T01:44:36;30.50;99.90
31575;DHT22;18182;1.328;103.810;2022-10-22T02:04:51;30.90;99.90
31575;DHT22;18182;1.328;103.810;2022-10-22T02:07:20;30.80;99.90
31575;DHT22;18182;1.328;103.810;2022-10-22T02:09:48;30.70;99.90
31575;DHT22;18182;1.328;103.810;2022-10-22T02:12:15;30.60;99.90
31575;DHT22;18182;1.328;103.810;2022-10-22T02:14:43;30.50;99.90
31575;DHT22;18182;1.328;103.810;2022-10-22T02:17:10;30.50;99.90
31575;DHT22;18182;1.328;103.810;2022-10-22T02:19:43;30.60;99.90
31575;DHT22;18182;1.328;103.810;2022-10-22T02:22:11;30.60;99.90
31575;DHT22;18182;1.328;103.810;2022-10-22T02:24:37;30.80;99.90
31575;DHT22;18182;1.328;103.810;2022-10-22T02:29:34;31.00;99.90
31575;DHT22;18182;1.328;103.810;2022-10-22T02:32:02;31.00;99.90
31575;DHT22;18182;1.328;103.810;2022-10-22T02:34:30;31.00;99.90
31575;DHT22;18182;1.328;103.810;2022-10-22T02:36:57;31.00;99.90
31575;DHT22;18182;1.328;103.810;2022-10-22T02:39:24;31.00;99.90
31575;DHT22;18182;1.328;103.810;2022-10-22T02:41:51;31.00;99.90
31575;DHT22;18182;1.328;103.810;2022-10-22T02:44:19;31.00;99.90
31575;DHT22;18182;1.328;103.810;2022-10-22T02:46:46;31.10;99.90
31575;DHT22;18182;1.328;103.810;2022-10-22T02:49:12;31.10;99.90
31575;DHT22;18182;1.328;103.810;2022-10-22T02:51:38;31.10;99.90
31575;DHT22;18182;1.328;103.810;2022-10-22T02:54:04;31.10;99.90
31575;DHT22;18182;1.328;103.810;2022-10-22T02:56:31;31.10;99.90
31575;DHT22;18182;1.328;103.810;2022-10-22T02:58:57;31.10;99.90
31575;DHT22;18182;1.328;103.810;2022-10-22T03:01:23;31.00;99.90
31575;DHT22;18182;1.328;103.810;2022-10-22T03:03:49;30.90;99.90
31575;DHT22;18182;1.328;103.810;2022-10-22T03:06:16;30.80;99.90
31575;DHT22;18182;1.328;103.810;2022-10-22T03:08:42;30.80;99.90
31575;DHT22;18182;1.328;103.810;2022-10-22T03:11:08;30.90;99.90
31575;DHT22;18182;1.328;103.810;2022-10-22T03:13:34;31.10;99.90
31575;DHT22;18182;1.328;103.810;2022-10-22T03:16:00;31.20;99.90
31575;DHT22;18182;1.328;103.810;2022-10-22T03:18:26;31.20;99.90
31575;DHT22;18182;1.328;103.810;2022-10-22T03:21:07;31.20;99.90
31575;DHT22;18182;1.328;103.810;2022-10-22T03:23:35;31.20;99.90
31575;DHT22;18182;1.328;103.810;2022-10-22T03:26:02;31.20;99.90
31575;DHT22;18182;1.328;103.810;2022-10-22T03:28:29;31.40;99.90
31575;DHT22;18182;1.328;103.810;2022-10-22T03:30:55;31.30;99.90
31575;DHT22;18182;1.328;103.810;2022-10-22T03:33:21;31.40;99.90
31575;DHT22;18182;1.328;103.810;2022-10-22T03:35:47;31.40;99.90
31575;DHT22;18182;1.328;103.810;2022-10-22T03:38:13;31.40;99.90
31575;DHT22;18182;1.328;103.810;2022-10-22T03:40:40;31.40;99.90
31575;DHT22;18182;1.328;103.810;2022-10-22T03:43:07;31.20;99.90
31575;DHT22;18182;1.328;103.810;2022-10-22T03:45:33;31.20;99.90
31575;DHT22;18182;1.328;103.810;2022-10-22T03:48:00;31.20;99.90
31575;DHT22;18182;1.328;103.810;2022-10-22T03:50:26;31.10;99.90
31575;DHT22;18182;1.328;103.810;2022-10-22T03:52:52;31.10;99.90
31575;DHT22;18182;1.328;103.810;2022-10-22T03:55:18;31.00;99.90
31575;DHT22;18182;1.328;103.810;2022-10-22T03:57:45;30.90;99.90
31575;DHT22;18182;1.328;103.810;2022-10-22T04:00:11;30.80;99.90
31575;DHT22;18182;1.328;103.810;2022-10-22T04:02:37;30.60;99.90
31575;DHT22;18182;1.328;103.810;2022-10-22T04:05:03;30.60;99.90
31575;DHT22;18182;1.328;103.810;2022-10-22T04:07:29;30.50;99.90
31575;DHT22;18182;1.328;103.810;2022-10-22T04:09:55;30.50;99.90
31575;DHT22;18182;1.328;103.810;2022-10-22T04:12:21;30.50;99.90
31575;DHT22;18182;1.328;103.810;2022-10-22T04:14:47;30.70;99.90
31575;DHT22;18182;1.328;103.810;2022-10-22T04:17:14;30.90;99.90
31575;DHT22;18182;1.328;103.810;2022-10-22T04:19:40;30.90;99.90
31575;DHT22;18182;1.328;103.810;2022-10-22T04:22:06;31.00;99.90
31575;DHT22;18182;1.328;103.810;2022-10-22T04:24:32;31.00;99.90
31575;DHT22;18182;1.328;103.810;2022-10-22T04:26:58;30.90;99.90
31575;DHT22;18182;1.328;103.810;2022-10-22T04:29:24;30.90;99.90
31575;DHT22;18182;1.328;103.810;2022-10-22T04:31:50;30.90;99.90
31575;DHT22;18182;1.328;103.810;2022-10-22T04:34:16;30.90;99.90
31575;DHT22;18182;1.328;103.810;2022-10-22T04:36:43;30.90;99.90
31575;DHT22;18182;1.328;103.810;2022-10-22T04:39:09;31.00;99.90
31575;DHT22;18182;1.328;103.810;2022-10-22T04:41:37;31.00;99.90
31575;DHT22;18182;1.328;103.810;2022-10-22T04:44:03;31.10;99.90
31575;DHT22;18182;1.328;103.810;2022-10-22T04:46:31;31.10;99.90
31575;DHT22;18182;1.328;103.810;2022-10-22T04:48:58;31.20;99.90
31575;DHT22;18182;1.328;103.810;2022-10-22T04:51:24;31.20;99.90
31575;DHT22;18182;1.328;103.810;2022-10-22T04:53:51;31.10;99.90
31575;DHT22;18182;1.328;103.810;2022-10-22T04:56:21;31.20;99.90
31575;DHT22;18182;1.328;103.810;2022-10-22T04:58:50;31.20;99.90
31575;DHT22;18182;1.328;103.810;2022-10-22T05:03:43;31.10;99.90
31575;DHT22;18182;1.328;103.810;2022-10-22T05:06:09;31.10;99.90
31575;DHT22;18182;1.328;103.810;2022-10-22T05:08:35;31.00;99.90
31575;DHT22;18182;1.328;103.810;2022-10-22T05:11:09;31.10;99.90
31575;DHT22;18182;1.328;103.810;2022-10-22T05:13:35;31.10;99.90
31575;DHT22;18182;1.328;103.810;2022-10-22T05:16:01;31.10;99.90
31575;DHT22;18182;1.328;103.810;2022-10-22T05:18:27;31.10;99.90
31575;DHT22;18182;1.328;103.810;2022-10-22T05:20:53;31.10;99.90
31575;DHT22;18182;1.328;103.810;2022-10-22T05:23:19;31.10;99.90
31575;DHT22;18182;1.328;103.810;2022-10-22T05:25:45;31.10;99.90
31575;DHT22;18182;1.328;103.810;2022-10-22T05:28:11;31.10;99.90
31575;DHT22;18182;1.328;103.810;2022-10-22T05:30:38;31.10;99.90
31575;DHT22;18182;1.328;103.810;2022-10-22T05:33:04;31.10;99.90
31575;DHT22;18182;1.328;103.810;2022-10-22T05:35:30;31.10;99.90
31575;DHT22;18182;1.328;103.810;2022-10-22T05:37:56;31.00;99.90
31575;DHT22;18182;1.328;103.810;2022-10-22T05:40:22;31.00;99.90
31575;DHT22;18182;1.328;103.810;2022-10-22T05:42:48;30.90;99.90
31575;DHT22;18182;1.328;103.810;2022-10-22T05:45:14;30.90;99.90
31575;DHT22;18182;1.328;103.810;2022-10-22T05:47:41;30.90;99.90
31575;DHT22;18182;1.328;103.810;2022-10-22T05:50:07;30.90;99.90
31575;DHT22;18182;1.328;103.810;2022-10-22T05:52:33;30.90;99.90
31575;DHT22;18182;1.328;103.810;2022-10-22T05:54:59;30.70;99.90
31575;DHT22;18182;1.328;103.810;2022-10-22T05:57:26;30.60;99.90
31575;DHT22;18182;1.328;103.810;2022-10-22T05:59:52;30.30;99.90
31575;DHT22;18182;1.328;103.810;2022-10-22T06:02:18;30.20;99.90
31575;DHT22;18182;1.328;103.810;2022-10-22T06:04:44;30.10;99.90
31575;DHT22;18182;1.328;103.810;2022-10-22T06:07:10;30.00;99.90
31575;DHT22;18182;1.328;103.810;2022-10-22T06:09:39;29.90;99.90
31575;DHT22;18182;1.328;103.810;2022-10-22T06:12:06;29.80;99.90
31575;DHT22;18182;1.328;103.810;2022-10-22T06:14:35;29.80;99.90
31575;DHT22;18182;1.328;103.810;2022-10-22T06:17:01;29.70;99.90
31575;DHT22;18182;1.328;103.810;2022-10-22T06:19:27;29.60;99.90
31575;DHT22;18182;1.328;103.810;2022-10-22T06:21:55;29.50;99.90
31575;DHT22;18182;1.328;103.810;2022-10-22T06:24:21;29.50;99.90
31575;DHT22;18182;1.328;103.810;2022-10-22T06:26:51;29.50;99.90
31575;DHT22;18182;1.328;103.810;2022-10-22T06:29:17;29.50;99.90
31575;DHT22;18182;1.328;103.810;2022-10-22T06:31:43;29.60;99.90
31575;DHT22;18182;1.328;103.810;2022-10-22T06:34:10;29.70;99.90
31575;DHT22;18182;1.328;103.810;2022-10-22T06:36:37;29.70;99.90
31575;DHT22;18182;1.328;103.810;2022-10-22T06:39:03;29.70;99.90
31575;DHT22;18182;1.328;103.810;2022-10-22T06:41:29;29.70;99.90
31575;DHT22;18182;1.328;103.810;2022-10-22T06:43:56;29.70;99.90
31575;DHT22;18182;1.328;103.810;2022-10-22T06:46:22;29.70;99.90
31575;DHT22;18182;1.328;103.810;2022-10-22T06:48:50;29.80;99.90
31575;DHT22;18182;1.328;103.810;2022-10-22T06:51:17;29.80;99.90
31575;DHT22;18182;1.328;103.810;2022-10-22T06:53:43;29.90;99.90
31575;DHT22;18182;1.328;103.810;2022-10-22T06:56:11;30.00;99.90
31575;DHT22;18182;1.328;103.810;2022-10-22T06:58:37;30.00;99.90
31575;DHT22;18182;1.328;103.810;2022-10-22T07:01:05;30.00;99.90
31575;DHT22;18182;1.328;103.810;2022-10-22T07:03:31;30.00;99.90
31575;DHT22;18182;1.328;103.810;2022-10-22T07:06:04;29.90;99.90
31575;DHT22;18182;1.328;103.810;2022-10-22T07:08:31;29.90;99.90
31575;DHT22;18182;1.328;103.810;2022-10-22T07:11:04;29.90;99.90
31575;DHT22;18182;1.328;103.810;2022-10-22T07:13:30;29.90;99.90
31575;DHT22;18182;1.328;103.810;2022-10-22T07:15:56;29.90;99.90
31575;DHT22;18182;1.328;103.810;2022-10-22T07:18:23;29.90;99.90
31575;DHT22;18182;1.328;103.810;2022-10-22T07:20:49;29.90;99.90
31575;DHT22;18182;1.328;103.810;2022-10-22T07:23:15;29.90;99.90
31575;DHT22;18182;1.328;103.810;2022-10-22T07:25:41;29.90;99.90
31575;DHT22;18182;1.328;103.810;2022-10-22T07:28:07;29.90;99.90
31575;DHT22;18182;1.328;103.810;2022-10-22T07:30:34;30.00;99.90
31575;DHT22;18182;1.328;103.810;2022-10-22T07:33:00;30.00;99.90
31575;DHT22;18182;1.328;103.810;2022-10-22T07:35:26;30.10;99.90
31575;DHT22;18182;1.328;103.810;2022-10-22T07:37:52;30.10;99.90
31575;DHT22;18182;1.328;103.810;2022-10-22T07:40:18;30.20;99.90
31575;DHT22;18182;1.328;103.810;2022-10-22T07:42:44;30.10;99.90
31575;DHT22;18182;1.328;103.810;2022-10-22T07:45:11;30.20;99.90
31575;DHT22;18182;1.328;103.810;2022-10-22T07:47:37;30.20;99.90
31575;DHT22;18182;1.328;103.810;2022-10-22T07:50:03;30.10;99.90
31575;DHT22;18182;1.328;103.810;2022-10-22T07:52:31;30.10;99.90
31575;DHT22;18182;1.328;103.810;2022-10-22T07:54:57;30.10;99.90
31575;DHT22;18182;1.328;103.810;2022-10-22T07:57:23;30.00;99.90
31575;DHT22;18182;1.328;103.810;2022-10-22T07:59:49;30.00;99.90
31575;DHT22;18182;1.328;103.810;2022-10-22T08:02:15;30.00;99.90
31575;DHT22;18182;1.328;103.810;2022-10-22T08:04:41;29.90;99.90
31575;DHT22;18182;1.328;103.810;2022-10-22T08:07:07;29.90;99.90
31575;DHT22;18182;1.328;103.810;2022-10-22T08:09:33;29.90;99.90
31575;DHT22;18182;1.328;103.810;2022-10-22T08:12:00;29.90;99.90
31575;DHT22;18182;1.328;103.810;2022-10-22T08:14:26;29.90;99.90
31575;DHT22;18182;1.328;103.810;2022-10-22T08:16:52;29.90;99.90
31575;DHT22;18182;1.328;103.810;2022-10-22T08:19:18;29.90;99.90
31575;DHT22;18182;1.328;103.810;2022-10-22T08:21:46;29.90;99.90
31575;DHT22;18182;1.328;103.810;2022-10-22T08:24:12;29.90;99.90
31575;DHT22;18182;1.328;103.810;2022-10-22T08:26:39;29.90;99.90
31575;DHT22;18182;1.328;103.810;2022-10-22T08:29:06;29.90;99.90
31575;DHT22;18182;1.328;103.810;2022-10-22T08:31:32;29.80;99.90
31575;DHT22;18182;1.328;103.810;2022-10-22T08:33:58;29.80;99.90
31575;DHT22;18182;1.328;103.810;2022-10-22T08:36:25;29.80;99.90
31575;DHT22;18182;1.328;103.810;2022-10-22T08:38:51;29.80;99.90
31575;DHT22;18182;1.328;103.810;2022-10-22T08:41:18;29.80;99.90
31575;DHT22;18182;1.328;103.810;2022-10-22T08:44:06;29.80;99.90
31575;DHT22;18182;1.328;103.810;2022-10-22T08:46:45;29.80;99.90
31575;DHT22;18182;1.328;103.810;2022-10-22T08:49:22;29.80;99.90
31575;DHT22;18182;1.328;103.810;2022-10-22T08:51:49;29.80;99.90
31575;DHT22;18182;1.328;103.810;2022-10-22T08:54:17;29.80;99.90
31575;DHT22;18182;1.328;103.810;2022-10-22T08:56:47;29.80;99.90
31575;DHT22;18182;1.328;103.810;2022-10-22T08:59:25;29.80;99.90
31575;DHT22;18182;1.328;103.810;2022-10-22T09:01:52;29.70;99.90
31575;DHT22;18182;1.328;103.810;2022-10-22T09:06:50;29.70;99.90
31575;DHT22;18182;1.328;103.810;2022-10-22T09:09:17;29.70;99.90
31575;DHT22;18182;1.328;103.810;2022-10-22T09:11:45;29.70;99.90
31575;DHT22;18182;1.328;103.810;2022-10-22T09:14:13;29.70;99.90
31575;DHT22;18182;1.328;103.810;2022-10-22T09:19:30;29.70;99.90
31575;DHT22;18182;1.328;103.810;2022-10-22T09:24:45;29.70;99.90
31575;DHT22;18182;1.328;103.810;2022-10-22T09:27:20;29.70;99.90
31575;DHT22;18182;1.328;103.810;2022-10-22T09:29:48;29.80;99.90
31575;DHT22;18182;1.328;103.810;2022-10-22T09:32:14;29.80;99.90
31575;DHT22;18182;1.328;103.810;2022-10-22T09:34:43;29.80;99.90
31575;DHT22;18182;1.328;103.810;2022-10-22T09:37:09;29.80;99.90
31575;DHT22;18182;1.328;103.810;2022-10-22T09:39:37;29.80;99.90
31575;DHT22;18182;1.328;103.810;2022-10-22T09:42:04;29.80;99.90
31575;DHT22;18182;1.328;103.810;2022-10-22T09:44:33;29.80;99.90
31575;DHT22;18182;1.328;103.810;2022-10-22T09:47:07;29.80;99.90
31575;DHT22;18182;1.328;103.810;2022-10-22T09:49:55;29.70;99.90
31575;DHT22;18182;1.328;103.810;2022-10-22T09:52:29;29.80;99.90
31575;DHT22;18182;1.328;103.810;2022-10-22T09:54:55;29.80;99.90
31575;DHT22;18182;1.328;103.810;2022-10-22T09:57:22;29.80;99.90
31575;DHT22;18182;1.328;103.810;2022-10-22T09:59:50;29.80;99.90
31575;DHT22;18182;1.328;103.810;2022-10-22T10:02:19;29.80;99.90
31575;DHT22;18182;1.328;103.810;2022-10-22T10:04:55;29.80;99.90
31575;DHT22;18182;1.328;103.810;2022-10-22T10:07:25;29.80;99.90
31575;DHT22;18182;1.328;103.810;2022-10-22T10:09:52;29.80;99.90
31575;DHT22;18182;1.328;103.810;2022-10-22T10:30:38;29.60;99.90
31575;DHT22;18182;1.328;103.810;2022-10-22T10:33:32;29.60;99.90
31575;DHT22;18182;1.328;103.810;2022-10-22T10:36:03;29.70;99.90
31575;DHT22;18182;1.328;103.810;2022-10-22T10:38:34;29.70;99.90
31575;DHT22;18182;1.328;103.810;2022-10-22T10:43:36;29.70;99.90
31575;DHT22;18182;1.328;103.810;2022-10-22T10:46:12;29.70;99.90
31575;DHT22;18182;1.328;103.810;2022-10-22T10:49:15;29.70;99.90
31575;DHT22;18182;1.328;103.810;2022-10-22T10:51:40;29.70;99.90
31575;DHT22;18182;1.328;103.810;2022-10-22T10:56:46;29.70;99.90
31575;DHT22;18182;1.328;103.810;2022-10-22T10:59:31;29.60;99.90
31575;DHT22;18182;1.328;103.810;2022-10-22T11:04:40;29.60;99.90
31575;DHT22;18182;1.328;103.810;2022-10-22T11:07:16;29.60;99.90
31575;DHT22;18182;1.328;103.810;2022-10-22T11:09:56;29.60;99.90
31575;DHT22;18182;1.328;103.810;2022-10-22T11:12:26;29.60;99.90
31575;DHT22;18182;1.328;103.810;2022-10-22T11:17:32;29.50;99.90
31575;DHT22;18182;1.328;103.810;2022-10-22T11:20:19;29.50;99.90
31575;DHT22;18182;1.328;103.810;2022-10-22T11:22:49;29.50;99.90
31575;DHT22;18182;1.328;103.810;2022-10-22T11:25:24;29.50;99.90
31575;DHT22;18182;1.328;103.810;2022-10-22T11:28:08;29.50;99.90
31575;DHT22;18182;1.328;103.810;2022-10-22T11:30:36;29.60;99.90
31575;DHT22;18182;1.328;103.810;2022-10-22T11:33:08;29.60;99.90
31575;DHT22;18182;1.328;103.810;2022-10-22T11:35:39;29.60;99.90
31575;DHT22;18182;1.328;103.810;2022-10-22T11:38:06;29.50;99.90
31575;DHT22;18182;1.328;103.810;2022-10-22T11:40:35;29.50;99.90
31575;DHT22;18182;1.328;103.810;2022-10-22T11:43:06;29.40;99.90
31575;DHT22;18182;1.328;103.810;2022-10-22T11:45:36;29.40;99.90
31575;DHT22;18182;1.328;103.810;2022-10-22T11:48:15;29.40;99.90
31575;DHT22;18182;1.328;103.810;2022-10-22T12:08:49;29.00;99.90
31575;DHT22;18182;1.328;103.810;2022-10-22T12:16:43;28.80;99.90
31575;DHT22;18182;1.328;103.810;2022-10-22T12:21:36;28.90;99.90
31575;DHT22;18182;1.328;103.810;2022-10-22T12:24:03;28.90;99.90
31575;DHT22;18182;1.328;103.810;2022-10-22T12:26:30;28.90;99.90
31575;DHT22;18182;1.328;103.810;2022-10-22T12:28:59;28.90;99.90
31575;DHT22;18182;1.328;103.810;2022-10-22T12:31:26;28.90;99.90
31575;DHT22;18182;1.328;103.810;2022-10-22T12:33:58;28.90;99.90
31575;DHT22;18182;1.328;103.810;2022-10-22T12:36:25;28.90;99.90
31575;DHT22;18182;1.328;103.810;2022-10-22T12:38:52;28.90;99.90
31575;DHT22;18182;1.328;103.810;2022-10-22T12:41:19;28.90;99.90
31575;DHT22;18182;1.328;103.810;2022-10-22T12:43:45;28.90;99.90
31575;DHT22;18182;1.328;103.810;2022-10-22T12:46:12;28.90;99.90
31575;DHT22;18182;1.328;103.810;2022-10-22T12:48:40;28.90;99.90
31575;DHT22;18182;1.328;103.810;2022-10-22T12:51:07;28.90;99.90
31575;DHT22;18182;1.328;103.810;2022-10-22T12:53:37;28.80;99.90
31575;DHT22;18182;1.328;103.810;2022-10-22T12:56:06;28.80;99.90
31575;DHT22;18182;1.328;103.810;2022-10-22T12:58:35;28.80;99.90
31575;DHT22;18182;1.328;103.810;2022-10-22T13:01:03;28.70;99.90
31575;DHT22;18182;1.328;103.810;2022-10-22T13:03:36;28.70;99.90
31575;DHT22;18182;1.328;103.810;2022-10-22T13:06:41;28.60;99.90
31575;DHT22;18182;1.328;103.810;2022-10-22T13:11:32;28.40;99.90
31575;DHT22;18182;1.328;103.810;2022-10-22T13:14:03;28.30;99.90
31575;DHT22;18182;1.328;103.810;2022-10-22T13:16:29;28.30;99.90
31575;DHT22;18182;1.328;103.810;2022-10-22T13:18:56;28.20;99.90
31575;DHT22;18182;1.328;103.810;2022-10-22T13:21:24;28.20;99.90
31575;DHT22;18182;1.328;103.810;2022-10-22T13:24:01;28.20;99.90
31575;DHT22;18182;1.328;103.810;2022-10-22T13:26:34;28.10;99.90
31575;DHT22;18182;1.328;103.810;2022-10-22T13:29:01;28.10;99.90
31575;DHT22;18182;1.328;103.810;2022-10-22T13:31:29;28.20;99.90
31575;DHT22;18182;1.328;103.810;2022-10-22T13:33:57;28.10;99.90
31575;DHT22;18182;1.328;103.810;2022-10-22T13:36:24;28.10;99.90
31575;DHT22;18182;1.328;103.810;2022-10-22T13:38:50;28.10;99.90
31575;DHT22;18182;1.328;103.810;2022-10-22T13:41:17;28.00;99.90
31575;DHT22;18182;1.328;103.810;2022-10-22T13:43:44;28.10;99.90
31575;DHT22;18182;1.328;103.810;2022-10-22T13:46:10;28.10;99.90
31575;DHT22;18182;1.328;103.810;2022-10-22T13:48:36;28.00;99.90
31575;DHT22;18182;1.328;103.810;2022-10-22T13:51:03;28.10;99.90
31575;DHT22;18182;1.328;103.810;2022-10-22T13:53:29;28.00;99.90
31575;DHT22;18182;1.328;103.810;2022-10-22T13:55:56;28.00;99.90
31575;DHT22;18182;1.328;103.810;2022-10-22T13:58:23;27.90;99.90
31575;DHT22;18182;1.328;103.810;2022-10-22T14:00:51;27.90;99.90
31575;DHT22;18182;1.328;103.810;2022-10-22T14:03:19;27.90;99.90
31575;DHT22;18182;1.328;103.810;2022-10-22T14:05:46;27.90;99.90
31575;DHT22;18182;1.328;103.810;2022-10-22T14:08:14;27.80;99.90
31575;DHT22;18182;1.328;103.810;2022-10-22T14:10:40;27.80;99.90
31575;DHT22;18182;1.328;103.810;2022-10-22T14:13:08;27.90;99.90
31575;DHT22;18182;1.328;103.810;2022-10-22T14:15:35;27.90;99.90
31575;DHT22;18182;1.328;103.810;2022-10-22T14:18:01;27.90;99.90
31575;DHT22;18182;1.328;103.810;2022-10-22T14:20:29;27.90;99.90
31575;DHT22;18182;1.328;103.810;2022-10-22T14:22:58;27.90;99.90
31575;DHT22;18182;1.328;103.810;2022-10-22T14:25:26;27.90;99.90
31575;DHT22;18182;1.328;103.810;2022-10-22T14:27:52;27.90;99.90
31575;DHT22;18182;1.328;103.810;2022-10-22T14:30:23;27.90;99.90
31575;DHT22;18182;1.328;103.810;2022-10-22T14:32:49;28.00;99.90
31575;DHT22;18182;1.328;103.810;2022-10-22T14:35:18;28.00;99.90
31575;DHT22;18182;1.328;103.810;2022-10-22T14:37:45;28.00;99.90
31575;DHT22;18182;1.328;103.810;2022-10-22T14:40:12;28.00;99.90
31575;DHT22;18182;1.328;103.810;2022-10-22T14:42:39;28.00;99.90
31575;DHT22;18182;1.328;103.810;2022-10-22T14:45:09;28.10;99.90
31575;DHT22;18182;1.328;103.810;2022-10-22T14:47:37;28.10;99.90
31575;DHT22;18182;1.328;103.810;2022-10-22T14:50:04;28.10;99.90
31575;DHT22;18182;1.328;103.810;2022-10-22T14:52:31;28.20;99.90
31575;DHT22;18182;1.328;103.810;2022-10-22T14:54:57;28.20;99.90
31575;DHT22;18182;1.328;103.810;2022-10-22T14:57:23;28.10;99.90
31575;DHT22;18182;1.328;103.810;2022-10-22T14:59:50;28.10;99.90
31575;DHT22;18182;1.328;103.810;2022-10-22T15:02:19;28.10;99.90
31575;DHT22;18182;1.328;103.810;2022-10-22T15:04:46;28.10;99.90
31575;DHT22;18182;1.328;103.810;2022-10-22T15:07:12;28.10;99.90
31575;DHT22;18182;1.328;103.810;2022-10-22T15:09:38;28.10;99.90
31575;DHT22;18182;1.328;103.810;2022-10-22T15:12:04;28.20;99.90
31575;DHT22;18182;1.328;103.810;2022-10-22T15:14:31;28.20;99.90
31575;DHT22;18182;1.328;103.810;2022-10-22T15:16:57;28.20;99.90
31575;DHT22;18182;1.328;103.810;2022-10-22T15:19:24;28.20;99.90
31575;DHT22;18182;1.328;103.810;2022-10-22T15:21:50;28.20;99.90
31575;DHT22;18182;1.328;103.810;2022-10-22T15:24:16;28.20;99.90
31575;DHT22;18182;1.328;103.810;2022-10-22T15:26:42;28.20;99.90
31575;DHT22;18182;1.328;103.810;2022-10-22T15:29:08;28.20;99.90
31575;DHT22;18182;1.328;103.810;2022-10-22T15:34:11;28.20;99.90
31575;DHT22;18182;1.328;103.810;2022-10-22T15:36:38;28.20;99.90
31575;DHT22;18182;1.328;103.810;2022-10-22T15:39:07;28.20;99.90
31575;DHT22;18182;1.328;103.810;2022-10-22T15:41:34;28.20;99.90
31575;DHT22;18182;1.328;103.810;2022-10-22T15:44:00;28.20;99.90
31575;DHT22;18182;1.328;103.810;2022-10-22T15:46:27;28.20;99.90
31575;DHT22;18182;1.328;103.810;2022-10-22T15:48:53;28.20;99.90
31575;DHT22;18182;1.328;103.810;2022-10-22T15:51:19;28.20;99.90
31575;DHT22;18182;1.328;103.810;2022-10-22T15:53:55;28.20;99.90
31575;DHT22;18182;1.328;103.810;2022-10-22T15:56:22;28.20;99.90
31575;DHT22;18182;1.328;103.810;2022-10-22T15:58:54;28.10;99.90
31575;DHT22;18182;1.328;103.810;2022-10-22T16:01:21;28.10;99.90
31575;DHT22;18182;1.328;103.810;2022-10-22T16:03:48;28.00;99.90
31575;DHT22;18182;1.328;103.810;2022-10-22T16:06:16;28.00;99.90
31575;DHT22;18182;1.328;103.810;2022-10-22T16:08:43;28.00;99.90
31575;DHT22;18182;1.328;103.810;2022-10-22T16:11:09;28.00;99.90
31575;DHT22;18182;1.328;103.810;2022-10-22T16:13:36;28.00;99.90
31575;DHT22;18182;1.328;103.810;2022-10-22T16:16:05;28.10;99.90
31575;DHT22;18182;1.328;103.810;2022-10-22T16:18:32;28.10;99.90
31575;DHT22;18182;1.328;103.810;2022-10-22T16:20:58;28.00;99.90
31575;DHT22;18182;1.328;103.810;2022-10-22T16:23:24;28.00;99.90
31575;DHT22;18182;1.328;103.810;2022-10-22T16:25:50;27.90;99.90
31575;DHT22;18182;1.328;103.810;2022-10-22T16:28:16;27.90;99.90
31575;DHT22;18182;1.328;103.810;2022-10-22T16:30:43;27.90;99.90
31575;DHT22;18182;1.328;103.810;2022-10-22T16:33:09;27.90;99.90
31575;DHT22;18182;1.328;103.810;2022-10-22T16:35:39;27.90;99.90
31575;DHT22;18182;1.328;103.810;2022-10-22T16:38:06;28.00;99.90
31575;DHT22;18182;1.328;103.810;2022-10-22T16:40:32;28.00;99.90
31575;DHT22;18182;1.328;103.810;2022-10-22T16:42:58;28.00;99.90
31575;DHT22;18182;1.328;103.810;2022-10-22T16:45:24;28.00;99.90
31575;DHT22;18182;1.328;103.810;2022-10-22T16:47:50;27.90;99.90
31575;DHT22;18182;1.328;103.810;2022-10-22T16:50:16;28.00;99.90
31575;DHT22;18182;1.328;103.810;2022-10-22T16:52:43;28.00;99.90
31575;DHT22;18182;1.328;103.810;2022-10-22T16:55:09;28.00;99.90
31575;DHT22;18182;1.328;103.810;2022-10-22T16:57:35;28.00;99.90
31575;DHT22;18182;1.328;103.810;2022-10-22T17:00:02;28.00;99.90